Eltham, Virginia
Current Conditions -  °F | °C
As of 2:15 PM on Friday 28 Nov 2014 (Local Time) from KFYJ Reporting Station
Scattered Clouds Scattered Clouds  
Wind Chill: 39°   Ceiling: Unl
Heat Index: 45°   Visibility: 10mi
Dew Point: 16°   Wind: 10mph
Humidity: 31%   Direction: 290°WNW
Pressure: 30.29"   Gusts: NA
Location:  37.6069°N, 76.8926°W
Report Text: KFYJ 281915Z AUTO 29009KT 10SM SCT055 07/M09 A3029 RMK AO2 T00711089
Loading
Personal Weather Stations






























Interactive Weather Map New forecast layout! Learn more

10-Day Weather Forecast

Advertisements
Track Severe Weather on mobile